createdAt,value
2019-05-16T00:01:45.301Z,24.17
2019-05-16T00:04:12.010Z,24.15
2019-05-16T00:06:39.237Z,24.17
2019-05-16T00:09:05.380Z,24.16
2019-05-16T00:11:32.028Z,24.14
2019-05-16T00:13:58.656Z,24.17
2019-05-16T00:16:25.320Z,24.14
2019-05-16T00:18:51.945Z,24.15
2019-05-16T00:21:18.588Z,24.15
2019-05-16T00:26:11.878Z,24.12
2019-05-16T00:28:38.562Z,24.12
2019-05-16T00:31:05.252Z,24.09
2019-05-16T00:33:31.890Z,24.12
2019-05-16T00:36:03.563Z,24.09
2019-05-16T00:38:25.709Z,24.08
2019-05-16T00:40:51.867Z,24.09
2019-05-16T00:43:18.517Z,24.06
2019-05-16T00:45:45.156Z,24.05
2019-05-16T00:48:11.836Z,24.07
2019-05-16T00:50:38.801Z,24.03
2019-05-16T00:53:05.125Z,24.12
2019-05-16T00:55:31.758Z,24.02
2019-05-16T00:57:58.508Z,24.05
2019-05-16T01:00:25.029Z,24.02
2019-05-16T01:02:51.671Z,24.06
2019-05-16T01:05:19.173Z,24.01
2019-05-16T01:07:44.971Z,24.05
2019-05-16T01:10:11.597Z,24.01
2019-05-16T01:12:39.051Z,24.07
2019-05-16T01:15:04.887Z,24.00
2019-05-16T01:17:31.579Z,24.04
2019-05-16T01:22:24.901Z,24.05
2019-05-16T01:24:51.559Z,24.03
2019-05-16T01:27:18.544Z,24.04
2019-05-16T01:29:44.846Z,24.01
2019-05-16T01:32:11.485Z,24.05
2019-05-16T01:34:38.137Z,24.01
2019-05-16T01:37:04.787Z,24.02
2019-05-16T01:39:31.462Z,24.02
2019-05-16T01:41:58.649Z,24.05
2019-05-16T01:44:24.741Z,24.06
2019-05-16T01:46:51.405Z,24.03
2019-05-16T01:49:18.803Z,24.00
2019-05-16T01:51:44.699Z,24.05
2019-05-16T01:54:11.352Z,24.03
2019-05-16T01:56:38.723Z,24.01
2019-05-16T01:59:04.651Z,24.04
2019-05-16T02:01:31.289Z,24.03
2019-05-16T02:03:58.687Z,24.04
2019-05-16T02:06:24.684Z,24.02
2019-05-16T02:08:51.324Z,24.02
2019-05-16T02:11:18.208Z,24.03
2019-05-16T02:13:44.618Z,24.01
2019-05-16T02:16:11.299Z,24.02
2019-05-16T02:18:38.296Z,24.02
2019-05-16T02:21:04.630Z,24.00
2019-05-16T02:23:31.277Z,24.06
2019-05-16T02:25:58.116Z,23.99
2019-05-16T02:28:30.369Z,24.03
2019-05-16T02:30:51.868Z,23.98
2019-05-16T02:33:20.901Z,24.02
2019-05-16T02:35:44.539Z,24.01
2019-05-16T02:38:11.461Z,24.01
2019-05-16T02:40:37.890Z,23.98
2019-05-16T02:43:04.524Z,24.01
2019-05-16T02:47:57.864Z,23.99
2019-05-16T02:50:24.495Z,23.97
2019-05-16T02:52:51.977Z,23.98
2019-05-16T02:55:17.861Z,23.96
2019-05-16T02:57:44.588Z,24.01
2019-05-16T03:00:12.137Z,23.97
2019-05-16T03:02:41.578Z,24.02
2019-05-16T03:05:04.492Z,23.96
2019-05-16T03:07:41.267Z,23.76
2019-05-16T03:10:01.097Z,23.55
2019-05-16T03:12:24.433Z,23.51
2019-05-16T03:14:54.501Z,23.60
2019-05-16T03:17:21.173Z,23.65
2019-05-16T03:19:44.373Z,23.69
2019-05-16T03:22:11.761Z,23.73
2019-05-16T03:24:37.744Z,23.70
2019-05-16T03:27:04.440Z,23.60
2019-05-16T03:29:31.149Z,23.50
2019-05-16T03:32:02.528Z,23.54
2019-05-16T03:34:25.861Z,23.53
2019-05-16T03:36:54.321Z,23.59
2019-05-16T03:39:21.042Z,23.55
2019-05-16T03:41:44.493Z,23.78
2019-05-16T03:44:11.466Z,23.84
2019-05-16T03:46:41.045Z,23.87
2019-05-16T03:49:04.479Z,23.87
2019-05-16T03:51:31.155Z,23.89
2019-05-16T03:53:57.805Z,23.91
2019-05-16T03:56:24.444Z,23.89
2019-05-16T03:58:51.269Z,23.92
2019-05-16T04:01:20.843Z,23.98
2019-05-16T04:03:44.426Z,23.96
2019-05-16T04:06:11.916Z,23.85
2019-05-16T04:11:04.395Z,23.76
2019-05-16T04:13:31.567Z,23.70
2019-05-16T04:16:00.956Z,23.74
2019-05-16T04:18:24.366Z,23.79
2019-05-16T04:20:52.351Z,23.91
2019-05-16T04:23:20.389Z,23.86
2019-05-16T04:25:44.354Z,23.95
2019-05-16T04:28:11.483Z,23.93
2019-05-16T04:30:37.640Z,23.95
2019-05-16T04:33:04.317Z,23.95
2019-05-16T04:35:31.647Z,24.00
2019-05-16T04:37:57.590Z,24.01
2019-05-16T04:40:24.250Z,24.00
2019-05-16T04:42:51.403Z,24.01
2019-05-16T04:45:20.914Z,24.03
2019-05-16T04:47:44.221Z,24.09
2019-05-16T04:50:11.970Z,24.06
2019-05-16T04:52:37.553Z,24.07
2019-05-16T04:55:04.239Z,24.10
2019-05-16T04:57:31.414Z,24.08
2019-05-16T04:59:57.524Z,24.12
2019-05-16T05:02:24.219Z,24.13
2019-05-16T05:04:51.103Z,24.18
2019-05-16T05:07:20.434Z,24.18
2019-05-16T05:09:44.163Z,24.19
2019-05-16T05:12:11.569Z,24.14
2019-05-16T05:14:37.489Z,24.13
2019-05-16T05:17:05.501Z,24.19
2019-05-16T05:19:30.826Z,24.17
2019-05-16T05:22:01.134Z,24.18
2019-05-16T05:24:24.123Z,24.27
2019-05-16T05:26:50.762Z,24.32
2019-05-16T05:29:19.920Z,24.43
2019-05-16T05:31:45.459Z,24.36
2019-05-16T05:34:10.902Z,24.26
2019-05-16T05:36:37.481Z,24.25
2019-05-16T05:39:11.779Z,24.26
2019-05-16T05:41:30.790Z,24.29
2019-05-16T05:43:59.693Z,24.41
2019-05-16T05:46:24.122Z,24.34
2019-05-16T05:48:50.826Z,24.39
2019-05-16T05:51:17.470Z,24.48
2019-05-16T05:53:44.130Z,24.51
2019-05-16T05:56:11.505Z,24.58
2019-05-16T05:58:37.474Z,24.52
2019-05-16T06:01:04.122Z,24.50
2019-05-16T06:03:32.761Z,24.53
2019-05-16T06:05:57.445Z,24.52
2019-05-16T06:08:24.137Z,24.56
2019-05-16T06:10:50.814Z,24.72
2019-05-16T06:13:20.868Z,24.69
2019-05-16T06:15:46.657Z,24.79
2019-05-16T06:18:13.321Z,24.75
2019-05-16T06:20:40.132Z,24.65
2019-05-16T06:23:06.676Z,24.73
2019-05-16T06:25:33.366Z,24.69
2019-05-16T06:28:00.255Z,24.62
2019-05-16T06:30:26.728Z,24.81
2019-05-16T06:32:53.370Z,24.77
2019-05-16T06:35:21.288Z,24.88
2019-05-16T06:37:46.710Z,24.84
2019-05-16T06:40:13.357Z,24.94
2019-05-16T06:42:40.432Z,24.84
2019-05-16T06:45:06.700Z,24.96
2019-05-16T06:47:33.355Z,25.01
2019-05-16T06:50:00.347Z,24.92
2019-05-16T06:52:26.660Z,24.82
2019-05-16T06:54:53.935Z,24.80
2019-05-16T06:57:20.625Z,24.86
2019-05-16T06:59:46.626Z,24.83
2019-05-16T07:04:39.920Z,24.91
2019-05-16T07:07:09.460Z,24.93
2019-05-16T07:09:33.197Z,25.05
2019-05-16T07:11:59.955Z,25.14
2019-05-16T07:14:28.255Z,24.94
2019-05-16T07:16:53.158Z,24.94
2019-05-16T07:19:20.754Z,24.95
2019-05-16T07:21:46.448Z,25.09
2019-05-16T07:26:40.523Z,25.12
2019-05-16T07:29:06.402Z,25.21
2019-05-16T07:31:33.044Z,25.24
2019-05-16T07:34:00.811Z,25.28
2019-05-16T07:36:26.341Z,25.23
2019-05-16T07:38:52.990Z,25.21
2019-05-16T07:41:20.425Z,25.19
2019-05-16T07:43:46.287Z,25.19
2019-05-16T07:46:12.936Z,25.18
2019-05-16T07:48:40.344Z,25.13
2019-05-16T07:51:06.242Z,25.23
2019-05-16T07:53:33.170Z,25.14
2019-05-16T07:56:00.127Z,25.13
2019-05-16T07:58:26.165Z,25.19
2019-05-16T08:01:02.815Z,25.25
2019-05-16T08:03:20.051Z,25.28
2019-05-16T08:05:46.126Z,25.30
2019-05-16T08:08:12.776Z,25.19
2019-05-16T08:10:46.142Z,25.20
2019-05-16T08:13:06.071Z,25.14
2019-05-16T08:15:32.725Z,25.21
2019-05-16T08:18:03.150Z,25.45
2019-05-16T08:20:26.024Z,25.28
2019-05-16T08:22:52.673Z,25.33
2019-05-16T08:25:20.381Z,25.51
2019-05-16T08:27:45.970Z,25.44
2019-05-16T08:30:12.684Z,25.36
2019-05-16T08:32:42.204Z,25.40
2019-05-16T08:35:05.984Z,25.47
2019-05-16T08:40:00.353Z,25.40
2019-05-16T08:42:25.913Z,25.40
2019-05-16T08:44:52.743Z,25.32
2019-05-16T08:47:21.327Z,25.40
2019-05-16T08:49:45.933Z,25.43
2019-05-16T08:52:12.618Z,25.52
2019-05-16T08:54:43.757Z,25.49
2019-05-16T08:57:26.008Z,25.58
2019-05-16T08:59:35.585Z,25.54
2019-05-16T09:02:03.227Z,25.67
2019-05-16T09:04:33.565Z,25.73
2019-05-16T09:06:55.585Z,25.68
2019-05-16T09:09:39.937Z,25.66
2019-05-16T09:10:31.461Z,25.36
2019-05-16T09:11:48.945Z,25.65
2019-05-16T09:14:17.125Z,25.72
2019-05-16T09:16:42.177Z,25.69
2019-05-16T09:19:08.871Z,25.70
2019-05-16T09:21:38.203Z,25.85
2019-05-16T09:24:02.168Z,25.91
2019-05-16T09:26:28.857Z,25.92
2019-05-16T09:28:57.036Z,25.96
2019-05-16T09:31:22.165Z,26.20
2019-05-16T09:33:48.823Z,26.08
2019-05-16T09:36:17.423Z,26.06
2019-05-16T09:38:42.172Z,26.13
2019-05-16T09:41:08.825Z,26.23
2019-05-16T09:43:38.538Z,26.21
2019-05-16T09:46:03.996Z,26.45
2019-05-16T09:48:28.820Z,25.97
2019-05-16T09:50:57.702Z,25.50
2019-05-16T09:53:22.153Z,25.46
2019-05-16T09:55:48.879Z,25.72
2019-05-16T09:58:18.083Z,25.82
2019-05-16T10:00:42.210Z,25.86
2019-05-16T10:03:08.898Z,25.77
2019-05-16T10:05:37.226Z,25.96
2019-05-16T10:08:02.243Z,25.67
2019-05-16T10:10:28.853Z,25.84
2019-05-16T10:12:55.501Z,25.88
2019-05-16T10:15:22.138Z,25.91
2019-05-16T10:17:48.781Z,26.02
2019-05-16T10:20:16.901Z,25.83
2019-05-16T10:22:42.070Z,25.88
2019-05-16T10:25:08.876Z,25.86
2019-05-16T10:27:36.734Z,25.87
2019-05-16T10:30:02.367Z,25.88
2019-05-16T10:32:28.831Z,25.76
2019-05-16T10:34:57.258Z,25.91
2019-05-16T10:39:49.088Z,25.61
2019-05-16T10:42:27.926Z,25.44
2019-05-16T10:44:42.439Z,25.74
2019-05-16T10:47:09.095Z,25.76
2019-05-16T10:49:38.737Z,25.76
2019-05-16T10:52:02.412Z,25.72
2019-05-16T10:54:29.124Z,25.52
2019-05-16T10:56:57.679Z,25.37
2019-05-16T11:01:49.292Z,25.44
2019-05-16T11:04:28.624Z,25.17
2019-05-16T11:06:42.610Z,25.12
2019-05-16T11:09:09.269Z,25.17
2019-05-16T11:11:36.786Z,25.42
2019-05-16T11:14:02.569Z,25.25
2019-05-16T11:16:29.298Z,25.35
2019-05-16T11:19:12.553Z,25.48
2019-05-16T11:21:22.605Z,25.38
2019-05-16T11:23:49.255Z,25.28
2019-05-16T11:26:15.914Z,25.55
2019-05-16T11:28:42.559Z,25.35
2019-05-16T11:31:09.207Z,25.32
2019-05-16T11:33:36.985Z,25.24
2019-05-16T11:36:02.548Z,25.13
2019-05-16T11:38:29.204Z,25.09
2019-05-16T11:40:56.850Z,25.00
2019-05-16T11:43:22.493Z,24.93
2019-05-16T11:45:49.399Z,25.01
2019-05-16T11:48:17.155Z,24.85
2019-05-16T11:50:42.742Z,24.81
2019-05-16T11:53:09.386Z,25.01
2019-05-16T11:55:50.519Z,24.98
2019-05-16T11:58:02.691Z,24.97
2019-05-16T12:00:30.493Z,24.93
2019-05-16T12:02:56.000Z,24.93
2019-05-16T12:05:27.629Z,24.92
2019-05-16T12:07:57.155Z,24.92
2019-05-16T12:10:20.942Z,24.92
2019-05-16T12:12:47.611Z,24.95
2019-05-16T12:15:17.506Z,24.92
2019-05-16T12:17:40.910Z,24.91
2019-05-16T12:20:08.020Z,24.93
2019-05-16T12:22:34.214Z,24.94
2019-05-16T12:25:00.870Z,24.97
2019-05-16T12:27:32.202Z,24.99
2019-05-16T12:29:56.259Z,25.03
2019-05-16T12:32:20.907Z,25.15
2019-05-16T12:34:47.553Z,25.12
2019-05-16T12:37:14.198Z,25.06
2019-05-16T12:39:40.854Z,25.04
2019-05-16T12:42:08.471Z,25.10
2019-05-16T12:44:34.186Z,25.10
2019-05-16T12:47:00.843Z,25.09
2019-05-16T12:49:27.494Z,25.10
2019-05-16T12:51:54.147Z,25.20
2019-05-16T12:54:20.792Z,25.23
2019-05-16T12:56:48.283Z,25.22
2019-05-16T12:59:20.597Z,25.16
2019-05-16T13:01:40.825Z,25.18
2019-05-16T13:04:07.527Z,25.36
2019-05-16T13:06:34.165Z,25.32
2019-05-16T13:09:00.841Z,25.30
2019-05-16T13:11:27.501Z,25.25
2019-05-16T13:14:03.427Z,25.32
2019-05-16T13:16:20.953Z,25.29
2019-05-16T13:18:47.642Z,25.22
2019-05-16T13:21:14.333Z,25.22
2019-05-16T13:23:40.969Z,25.20
2019-05-16T13:26:07.621Z,25.18
2019-05-16T13:28:34.256Z,25.32
2019-05-16T13:33:27.562Z,25.22
2019-05-16T13:35:54.202Z,25.18
2019-05-16T13:38:20.851Z,25.28
2019-05-16T13:40:47.512Z,25.09
2019-05-16T13:43:14.157Z,25.15
2019-05-16T13:45:40.846Z,25.40
2019-05-16T13:48:08.019Z,25.30
2019-05-16T13:50:37.194Z,25.22
2019-05-16T13:53:00.805Z,25.26
2019-05-16T13:55:27.455Z,25.14
2019-05-16T13:57:55.367Z,25.09
2019-05-16T14:00:22.005Z,25.09
2019-05-16T14:02:48.658Z,25.04
2019-05-16T14:05:17.874Z,25.05
2019-05-16T14:07:42.136Z,25.03
2019-05-16T14:10:08.819Z,25.02
2019-05-16T14:12:36.751Z,25.00
2019-05-16T14:15:02.163Z,25.06
2019-05-16T14:17:28.842Z,24.99
2019-05-16T14:19:57.312Z,24.97
2019-05-16T14:22:22.174Z,24.96
2019-05-16T14:24:48.842Z,24.90
2019-05-16T14:27:17.260Z,24.95
2019-05-16T14:29:42.255Z,25.02
2019-05-16T14:32:10.455Z,25.04
2019-05-16T14:34:38.098Z,24.99
2019-05-16T14:37:02.226Z,24.99
2019-05-16T14:39:28.884Z,24.97
2019-05-16T14:41:56.844Z,24.92
2019-05-16T14:44:22.189Z,24.94
2019-05-16T14:46:48.846Z,24.90
2019-05-16T14:49:17.195Z,24.83
2019-05-16T14:51:42.138Z,24.86
2019-05-16T14:54:08.855Z,24.86
2019-05-16T14:56:35.497Z,24.82
2019-05-16T15:01:31.585Z,24.82
2019-05-16T15:03:58.236Z,24.72
2019-05-16T15:06:27.361Z,24.63
2019-05-16T15:08:51.559Z,24.64
2019-05-16T15:11:18.242Z,24.58
2019-05-16T15:13:44.894Z,24.55
2019-05-16T15:16:11.550Z,24.56
2019-05-16T15:18:38.597Z,24.69
2019-05-16T15:21:08.395Z,24.63
2019-05-16T15:23:31.532Z,24.54
2019-05-16T15:25:58.227Z,24.50
2019-05-16T15:28:29.980Z,24.48
2019-05-16T15:30:51.528Z,24.63
2019-05-16T15:33:19.770Z,24.60
2019-05-16T15:35:47.029Z,24.44
2019-05-16T15:38:11.488Z,24.46
2019-05-16T15:40:38.133Z,24.50
2019-05-16T15:43:07.479Z,24.49
2019-05-16T15:45:38.045Z,24.47
2019-05-16T15:47:59.885Z,24.41
2019-05-16T15:50:27.943Z,24.42
2019-05-16T15:52:51.425Z,24.41
2019-05-16T15:55:18.148Z,24.37
2019-05-16T15:57:47.260Z,24.38
2019-05-16T16:00:11.574Z,24.32
2019-05-16T16:02:38.213Z,24.34
2019-05-16T16:05:07.191Z,24.37
2019-05-16T16:07:31.624Z,24.25
2019-05-16T16:09:58.308Z,24.23
2019-05-16T16:12:26.580Z,24.27
2019-05-16T16:14:51.652Z,24.30
2019-05-16T16:17:18.316Z,24.27
2019-05-16T16:19:46.897Z,24.22
2019-05-16T16:22:11.618Z,24.23
2019-05-16T16:24:38.257Z,24.18
2019-05-16T16:27:07.166Z,24.21
2019-05-16T16:29:33.146Z,24.14
2019-05-16T16:31:58.206Z,24.15
2019-05-16T16:34:26.801Z,24.20
2019-05-16T16:36:51.521Z,24.17
2019-05-16T16:41:47.589Z,24.16
2019-05-16T16:44:11.455Z,24.18
2019-05-16T16:46:38.106Z,24.16
2019-05-16T16:49:07.051Z,24.15
2019-05-16T16:51:31.470Z,24.04
2019-05-16T16:53:58.117Z,24.08
2019-05-16T16:56:27.255Z,24.01
2019-05-16T16:58:51.408Z,24.01
2019-05-16T17:01:18.051Z,24.01
2019-05-16T17:03:46.858Z,24.01
2019-05-16T17:06:11.478Z,23.99
2019-05-16T17:08:38.113Z,23.98
2019-05-16T17:11:06.929Z,23.98
2019-05-16T17:13:31.454Z,23.97
2019-05-16T17:15:58.092Z,23.95
2019-05-16T17:18:24.744Z,23.96
2019-05-16T17:20:51.426Z,23.89
2019-05-16T17:23:18.073Z,23.87
2019-05-16T17:25:47.003Z,23.85
2019-05-16T17:28:11.404Z,23.87
2019-05-16T17:30:38.044Z,23.87
2019-05-16T17:33:07.275Z,23.86
2019-05-16T17:35:31.329Z,23.89
2019-05-16T17:37:57.975Z,23.82
2019-05-16T17:40:24.610Z,23.80
2019-05-16T17:42:51.259Z,23.85
2019-05-16T17:45:18.305Z,23.79
2019-05-16T17:47:46.463Z,23.78
2019-05-16T17:50:11.240Z,23.78
2019-05-16T17:52:37.926Z,23.74
2019-05-16T17:55:07.098Z,23.69
2019-05-16T17:57:31.204Z,23.70
2019-05-16T17:59:57.861Z,23.69
2019-05-16T18:02:26.614Z,23.68
2019-05-16T18:04:51.185Z,23.68
2019-05-16T18:07:17.829Z,23.65
2019-05-16T18:09:44.470Z,23.61
2019-05-16T18:12:11.151Z,23.62
2019-05-16T18:14:37.786Z,23.60
2019-05-16T18:17:04.482Z,23.60
2019-05-16T18:19:31.113Z,23.61
2019-05-16T18:21:57.783Z,23.59
2019-05-16T18:24:24.429Z,23.58
2019-05-16T18:26:51.063Z,23.56
2019-05-16T18:29:17.716Z,23.56
2019-05-16T18:31:46.927Z,23.50
2019-05-16T18:34:11.004Z,23.54
2019-05-16T18:36:37.664Z,23.51
2019-05-16T18:39:06.424Z,23.47
2019-05-16T18:41:30.973Z,23.49
2019-05-16T18:43:57.621Z,23.49
2019-05-16T18:46:26.784Z,23.48
2019-05-16T18:48:50.933Z,23.44
2019-05-16T18:51:17.589Z,23.43
2019-05-16T18:56:10.881Z,23.44
2019-05-16T18:58:37.537Z,23.37
2019-05-16T19:01:06.478Z,23.37
2019-05-16T19:03:30.828Z,23.36
2019-05-16T19:05:57.476Z,23.34
2019-05-16T19:08:24.128Z,23.34
2019-05-16T19:10:50.766Z,23.33
2019-05-16T19:13:17.479Z,23.32
2019-05-16T19:15:48.942Z,23.25
2019-05-16T19:18:10.831Z,23.29
2019-05-16T19:20:37.783Z,23.29
2019-05-16T19:23:04.149Z,23.23
2019-05-16T19:25:30.797Z,23.27
2019-05-16T19:27:57.439Z,23.23
2019-05-16T19:30:26.283Z,23.17
2019-05-16T19:32:50.740Z,23.21
2019-05-16T19:35:18.754Z,23.20
2019-05-16T19:37:44.021Z,23.13
2019-05-16T19:40:10.668Z,23.16
2019-05-16T19:42:37.345Z,23.16
2019-05-16T19:45:03.984Z,23.13
2019-05-16T19:47:37.145Z,23.11
2019-05-16T19:52:23.967Z,23.08
2019-05-16T19:54:50.608Z,23.08
2019-05-16T19:57:17.510Z,23.04
2019-05-16T19:59:43.936Z,23.00
2019-05-16T20:02:10.572Z,22.96
2019-05-16T20:04:37.253Z,23.01
2019-05-16T20:07:03.900Z,22.99
2019-05-16T20:09:30.546Z,22.96
2019-05-16T20:11:57.257Z,22.95
2019-05-16T20:14:23.900Z,22.94
2019-05-16T20:16:50.540Z,22.93
2019-05-16T20:19:17.195Z,22.89
2019-05-16T20:21:43.873Z,22.93
2019-05-16T20:24:10.514Z,22.89
2019-05-16T20:26:37.162Z,22.89
2019-05-16T20:29:03.844Z,22.89
2019-05-16T20:31:30.480Z,22.82
2019-05-16T20:33:57.124Z,22.85
2019-05-16T20:36:23.778Z,22.80
2019-05-16T20:38:50.428Z,22.74
2019-05-16T20:41:17.272Z,22.76
2019-05-16T20:43:43.814Z,22.75
2019-05-16T20:46:10.457Z,22.75
2019-05-16T20:48:37.135Z,22.76
2019-05-16T20:51:03.782Z,22.73
2019-05-16T20:53:30.424Z,22.68
2019-05-16T20:55:57.403Z,22.70
2019-05-16T20:58:23.789Z,22.68
2019-05-16T21:00:50.450Z,22.71
2019-05-16T21:03:17.112Z,22.62
2019-05-16T21:05:43.774Z,22.66
2019-05-16T21:08:10.409Z,22.67
2019-05-16T21:10:37.120Z,22.63
2019-05-16T21:13:03.794Z,22.66
2019-05-16T21:15:30.613Z,22.60
2019-05-16T21:17:57.282Z,22.57
2019-05-16T21:20:23.954Z,22.54
2019-05-16T21:22:50.639Z,22.54
2019-05-16T21:25:18.920Z,22.53
2019-05-16T21:27:46.346Z,22.52
2019-05-16T21:30:10.740Z,22.53
2019-05-16T21:32:37.470Z,22.47
2019-05-16T21:35:04.141Z,22.48
2019-05-16T21:37:30.816Z,22.43
2019-05-16T21:39:59.761Z,22.49
2019-05-16T21:42:24.177Z,22.46
2019-05-16T21:44:50.841Z,22.43
2019-05-16T21:47:19.668Z,22.45
2019-05-16T21:49:44.216Z,22.47
2019-05-16T21:52:10.896Z,22.49
2019-05-16T21:54:37.583Z,22.44
2019-05-16T21:57:04.251Z,22.40
2019-05-16T21:59:30.935Z,22.40
2019-05-16T22:01:57.653Z,22.38
2019-05-16T22:04:24.391Z,22.39
2019-05-16T22:06:51.068Z,22.40
2019-05-16T22:11:46.431Z,22.41
2019-05-16T22:14:11.092Z,22.36
2019-05-16T22:16:37.781Z,22.40
2019-05-16T22:19:04.452Z,22.39
2019-05-16T22:21:31.264Z,22.29
2019-05-16T22:23:57.915Z,22.31
2019-05-16T22:26:26.910Z,22.37
2019-05-16T22:28:51.265Z,22.33
2019-05-16T22:31:17.923Z,22.30
2019-05-16T22:33:46.769Z,22.30
2019-05-16T22:36:13.966Z,22.30
2019-05-16T22:38:40.596Z,22.31
2019-05-16T22:41:10.520Z,22.34
2019-05-16T22:43:33.893Z,22.32
2019-05-16T22:46:00.591Z,22.30
2019-05-16T22:48:27.243Z,22.24
2019-05-16T22:50:56.340Z,22.29
2019-05-16T22:53:20.519Z,22.25
2019-05-16T22:55:47.823Z,22.25
2019-05-16T22:58:13.800Z,22.21
2019-05-16T23:00:41.390Z,22.21
2019-05-16T23:03:07.153Z,22.21
2019-05-16T23:05:33.780Z,22.18
2019-05-16T23:08:04.958Z,22.22
2019-05-16T23:10:28.007Z,22.20
2019-05-16T23:12:53.824Z,22.16
2019-05-16T23:15:20.500Z,22.22
2019-05-16T23:17:47.132Z,22.14
2019-05-16T23:20:13.813Z,22.20
2019-05-16T23:22:40.457Z,22.17
2019-05-16T23:25:07.121Z,22.20
2019-05-16T23:30:00.426Z,22.15
2019-05-16T23:32:27.184Z,22.17
2019-05-16T23:34:53.709Z,22.16
2019-05-16T23:37:20.357Z,22.16
2019-05-16T23:39:47.505Z,22.11
2019-05-16T23:42:13.704Z,22.12
2019-05-16T23:44:40.389Z,22.16
2019-05-16T23:47:07.202Z,22.10
2019-05-16T23:49:33.674Z,22.09
2019-05-16T23:52:00.316Z,22.06
2019-05-16T23:54:27.775Z,22.04
2019-05-16T23:56:53.646Z,22.05
2019-05-16T23:59:20.291Z,22.07
